Wetterdaten: Woche 08.11.21 - 14.11.21 (KW45)
Datum Zeit Temp. Aussen Temp. o. S. Temp +5cm Feuchte Auss Luftdruck Regen Sonnenschein Regendauer Solar Windben Empfang
08.11.2021 00:00 6,2 C 5,2 C 3,2 C 94 % 1020,3 hPa 0,0 l/m 0,00 h 0,00 h 0 W/m 1,4 km/h (1 Bft) 96,33 %
08.11.2021 01:00 5,8 C 5,0 C 3,0 C 94 % 1020,4 hPa 0,0 l/m 0,00 h 0,00 h 0 W/m 1,6 km/h (1 Bft) 98,93 %
08.11.2021 02:00 6,3 C 5,8 C 4,0 C 96 % 1020,7 hPa 0,0 l/m 0,00 h 0,00 h 0 W/m 3,5 km/h (1 Bft) 96,59 %
08.11.2021 03:00 6,7 C 6,4 C 4,6 C 96 % 1020,8 hPa 0,0 l/m 0,00 h 0,00 h 0 W/m 5,1 km/h (1 Bft) 95,50 %
08.11.2021 04:00 7,0 C 6,7 C 5,0 C 96 % 1021,0 hPa 0,0 l/m 0,00 h 0,00 h 0 W/m 4,4 km/h (1 Bft) 96,15 %
08.11.2021 05:00 6,7 C 5,8 C 4,3 C 95 % 1021,3 hPa 0,0 l/m 0,00 h 0,00 h 0 W/m 2,2 km/h (1 Bft) 98,30 %
08.11.2021 06:00 6,4 C 5,6 C 4,1 C 95 % 1021,5 hPa 0,0 l/m 0,00 h 0,00 h 0 W/m 2,9 km/h (1 Bft) 94,78 %
08.11.2021 07:00 6,3 C 5,6 C 4,2 C 96 % 1022,0 hPa 0,0 l/m 0,00 h 0,00 h 7 W/m 2,3 km/h (1 Bft) 98,15 %
08.11.2021 08:00 6,3 C 5,9 C 4,2 C 96 % 1022,4 hPa 0,0 l/m 0,00 h 0,00 h 36 W/m 3,2 km/h (1 Bft) 98,21 %
08.11.2021 09:00 7,3 C 7,7 C 5,8 C 96 % 1023,1 hPa 0,0 l/m 0,07 h 0,00 h 83 W/m 5,0 km/h (1 Bft) 96,22 %
08.11.2021 10:00 8,2 C 9,0 C 6,9 C 95 % 1023,5 hPa 0,0 l/m 0,13 h 0,03 h 132 W/m 6,2 km/h (2 Bft) 98,24 %
08.11.2021 11:00 9,4 C 10,2 C 7,8 C 91 % 1023,5 hPa 0,0 l/m 0,33 h 0,00 h 160 W/m 6,4 km/h (2 Bft) 99,15 %
08.11.2021 12:00 10,3 C 10,7 C 8,2 C 87 % 1023,5 hPa 0,0 l/m 0,07 h 0,00 h 152 W/m 6,5 km/h (2 Bft) 94,59 %
08.11.2021 13:00 10,5 C 10,6 C 8,0 C 85 % 1023,4 hPa 0,0 l/m 0,00 h 0,00 h 119 W/m 7,2 km/h (2 Bft) 99,43 %
08.11.2021 14:00 10,5 C 10,2 C 7,8 C 84 % 1023,1 hPa 0,0 l/m 0,00 h 0,00 h 64 W/m 5,2 km/h (1 Bft) 96,70 %
08.11.2021 15:00 10,5 C 10,0 C 7,6 C 84 % 1023,2 hPa 0,0 l/m 0,00 h 0,00 h 50 W/m 4,0 km/h (1 Bft) 97,26 %
08.11.2021 16:00 10,4 C 9,6 C 7,0 C 84 % 1023,6 hPa 0,0 l/m 0,00 h 0,00 h 20 W/m 1,5 km/h (1 Bft) 98,20 %
08.11.2021 17:00 9,9 C 8,8 C 6,5 C 86 % 1024,1 hPa 0,0 l/m 0,00 h 0,00 h 0 W/m 0,9 km/h (0 Bft) 95,49 %
08.11.2021 18:00 9,4 C 8,7 C 6,1 C 86 % 1024,4 hPa 0,0 l/m 0,00 h 0,00 h 0 W/m 1,8 km/h (1 Bft) 97,06 %
08.11.2021 19:00 9,2 C 8,3 C 6,0 C 87 % 1025,1 hPa 0,0 l/m 0,00 h 0,00 h 0 W/m 0,1 km/h (0 Bft) 99,71 %
08.11.2021 20:00 8,9 C 8,3 C 5,7 C 88 % 1025,4 hPa 0,0 l/m 0,00 h 0,00 h 0 W/m 0,2 km/h (0 Bft) 94,81 %
08.11.2021 21:00 8,8 C 7,8 C 5,6 C 88 % 1025,4 hPa 0,0 l/m 0,00 h 0,00 h 0 W/m 2,0 km/h (1 Bft) 99,50 %
08.11.2021 22:00 8,0 C 6,1 C 4,0 C 88 % 1025,8 hPa 0,0 l/m 0,00 h 0,00 h 0 W/m 0,6 km/h (0 Bft) 97,08 %
08.11.2021 23:00 6,9 C 5,4 C 3,2 C 90 % 1026,0 hPa 0,0 l/m 0,00 h 0,00 h 0 W/m 1,1 km/h (0 Bft) 97,44 %
09.11.2021 00:00 6,3 C 5,6 C 3,5 C 92 % 1026,1 hPa 0,0 l/m 0,00 h 0,00 h 0 W/m 3,9 km/h (1 Bft) 94,94 %
09.11.2021 01:00 5,8 C 4,7 C 3,0 C 93 % 1026,1 hPa 0,0 l/m 0,00 h 0,00 h 0 W/m 1,9 km/h (1 Bft) 98,43 %
09.11.2021 02:00 4,9 C 3,8 C 2,4 C 93 % 1026,0 hPa 0,0 l/m 0,00 h 0,00 h 0 W/m 1,8 km/h (1 Bft) 97,93 %
09.11.2021 03:00 4,5 C 3,4 C 2,0 C 94 % 1026,3 hPa 0,0 l/m 0,00 h 0,00 h 0 W/m 0,5 km/h (0 Bft) 94,43 %
09.11.2021 04:00 3,7 C 3,0 C 1,6 C 94 % 1026,4 hPa 0,0 l/m 0,00 h 0,00 h 0 W/m 1,0 km/h (0 Bft) 97,93 %
09.11.2021 05:00 3,9 C 3,3 C 2,2 C 95 % 1026,5 hPa 0,0 l/m 0,00 h 0,00 h 0 W/m 6,0 km/h (2 Bft) 98,15 %
09.11.2021 06:00 3,7 C 3,1 C 2,0 C 95 % 1026,8 hPa 0,2 l/m 0,00 h 0,00 h 0 W/m 4,9 km/h (1 Bft) 96,98 %
09.11.2021 07:00 3,4 C 2,7 C 1,6 C 95 % 1027,3 hPa 0,0 l/m 0,00 h 0,00 h 7 W/m 3,7 km/h (1 Bft) 96,95 %
09.11.2021 08:00 3,3 C 3,0 C 1,9 C 95 % 1027,8 hPa 0,0 l/m 0,00 h 0,00 h 20 W/m 3,4 km/h (1 Bft) 98,22 %
09.11.2021 09:00 4,0 C 4,9 C 2,8 C 96 % 1027,9 hPa 0,0 l/m 0,57 h 0,00 h 135 W/m 7,1 km/h (2 Bft) 97,72 %
09.11.2021 10:00 6,8 C 14,5 C 4,7 C 94 % 1028,0 hPa 0,0 l/m 0,87 h 0,00 h 235 W/m 9,0 km/h (2 Bft) 97,58 %
09.11.2021 11:00 8,8 C 9,1 C 6,2 C 85 % 1028,2 hPa 0,0 l/m 0,00 h 0,07 h 50 W/m 7,5 km/h (2 Bft) 99,00 %
09.11.2021 12:00 10,2 C 11,3 C 7,1 C 78 % 1027,9 hPa 0,0 l/m 0,10 h 0,00 h 90 W/m 10,3 km/h (2 Bft) 95,30 %
09.11.2021 13:00 12,6 C 15,0 C 7,8 C 68 % 1027,3 hPa 0,0 l/m 1,00 h 0,00 h 356 W/m 11,3 km/h (2 Bft) 97,92 %
09.11.2021 14:00 13,0 C 14,5 C 7,8 C 67 % 1026,8 hPa 0,0 l/m 1,00 h 0,00 h 265 W/m 10,5 km/h (2 Bft) 98,58 %
09.11.2021 15:00 12,2 C 11,4 C 7,5 C 69 % 1026,5 hPa 0,0 l/m 0,40 h 0,00 h 84 W/m 10,0 km/h (2 Bft) 98,22 %
09.11.2021 16:00 11,1 C 9,9 C 6,3 C 73 % 1026,2 hPa 0,0 l/m 0,00 h 0,00 h 14 W/m 4,1 km/h (1 Bft) 97,72 %
09.11.2021 17:00 9,8 C 8,5 C 5,2 C 76 % 1026,4 hPa 0,0 l/m 0,00 h 0,00 h 0 W/m 4,1 km/h (1 Bft) 96,22 %
09.11.2021 18:00 8,8 C 7,8 C 4,7 C 77 % 1026,6 hPa 0,0 l/m 0,00 h 0,00 h 0 W/m 4,8 km/h (1 Bft) 98,75 %
09.11.2021 19:00 7,7 C 5,7 C 2,5 C 80 % 1026,4 hPa 0,0 l/m 0,00 h 0,00 h 0 W/m 0,1 km/h (0 Bft) 96,12 %
09.11.2021 20:00 6,0 C 4,2 C 1,4 C 84 % 1026,1 hPa 0,0 l/m 0,00 h 0,00 h 0 W/m 0,0 km/h (0 Bft) 96,06 %
09.11.2021 21:00 5,0 C 4,3 C 1,4 C 88 % 1026,2 hPa 0,0 l/m 0,00 h 0,00 h 0 W/m 1,4 km/h (1 Bft) 96,80 %
09.11.2021 22:00 5,2 C 4,8 C 2,3 C 90 % 1026,4 hPa 0,0 l/m 0,00 h 0,00 h 0 W/m 3,4 km/h (1 Bft) 97,17 %
09.11.2021 23:00 5,1 C 4,3 C 2,1 C 90 % 1026,4 hPa 0,0 l/m 0,00 h 0,00 h 0 W/m 3,6 km/h (1 Bft) 97,52 %
10.11.2021 00:00 4,7 C 3,9 C 1,7 C 91 % 1026,4 hPa 0,0 l/m 0,00 h 0,00 h 0 W/m 5,8 km/h (2 Bft) 95,36 %
10.11.2021 01:00 4,4 C 3,8 C 1,7 C 91 % 1025,9 hPa 0,0 l/m 0,00 h 0,00 h 0 W/m 6,0 km/h (2 Bft) 97,68 %
10.11.2021 02:00 4,0 C 3,2 C 1,4 C 92 % 1025,6 hPa 0,0 l/m 0,00 h 0,00 h 0 W/m 5,9 km/h (2 Bft) 98,43 %
10.11.2021 03:00 3,5 C 3,0 C 1,1 C 92 % 1025,2 hPa 0,0 l/m 0,00 h 0,00 h 0 W/m 8,2 km/h (2 Bft) 98,15 %
10.11.2021 04:00 3,4 C 2,7 C 1,0 C 92 % 1025,3 hPa 0,0 l/m 0,00 h 0,00 h 0 W/m 6,7 km/h (2 Bft) 95,15 %
10.11.2021 05:00 2,8 C 1,9 C 0,2 C 92 % 1025,4 hPa 0,0 l/m 0,00 h 0,00 h 0 W/m 1,1 km/h (0 Bft) 95,85 %
10.11.2021 06:00 2,1 C 1,0 C -0,4 C 93 % 1025,1 hPa 0,0 l/m 0,00 h 0,00 h 0 W/m 0,0 km/h (0 Bft) 99,36 %
10.11.2021 07:00 1,6 C 0,7 C -0,8 C 93 % 1025,0 hPa 0,0 l/m 0,00 h 0,00 h 7 W/m 0,0 km/h (0 Bft) 96,87 %
10.11.2021 08:00 1,5 C 1,1 C -0,2 C 94 % 1025,3 hPa 0,0 l/m 0,00 h 0,00 h 14 W/m 0,9 km/h (0 Bft) 97,63 %
10.11.2021 09:00 2,6 C 2,9 C 0,9 C 95 % 1025,8 hPa 0,2 l/m 0,27 h 0,00 h 82 W/m 8,3 km/h (2 Bft) 97,08 %
10.11.2021 10:00 3,8 C 5,4 C 2,2 C 95 % 1025,8 hPa 0,0 l/m 0,20 h 0,00 h 133 W/m 5,8 km/h (2 Bft) 98,58 %
10.11.2021 11:00 5,3 C 6,8 C 3,9 C 94 % 1025,7 hPa 0,0 l/m 0,00 h 0,00 h 154 W/m 6,5 km/h (2 Bft) 97,23 %
10.11.2021 12:00 7,6 C 8,7 C 5,4 C 86 % 1025,6 hPa 0,0 l/m 0,13 h 0,00 h 146 W/m 7,3 km/h (2 Bft) 98,00 %
10.11.2021 13:00 8,9 C 10,2 C 5,6 C 81 % 1024,9 hPa 0,0 l/m 0,43 h 0,00 h 194 W/m 7,1 km/h (2 Bft) 96,51 %
10.11.2021 14:00 9,2 C 10,1 C 5,8 C 78 % 1024,3 hPa 0,0 l/m 0,73 h 0,00 h 178 W/m 7,2 km/h (2 Bft) 98,65 %
10.11.2021 15:00 9,4 C 9,2 C 5,8 C 77 % 1024,5 hPa 0,0 l/m 0,63 h 0,00 h 121 W/m 5,1 km/h (1 Bft) 96,71 %
10.11.2021 16:00 8,9 C 7,2 C 4,0 C 78 % 1024,7 hPa 0,0 l/m 0,00 h 0,00 h 18 W/m 1,7 km/h (1 Bft) 97,94 %
10.11.2021 17:00 7,0 C 4,3 C 1,7 C 82 % 1024,8 hPa 0,0 l/m 0,00 h 0,00 h 0 W/m 0,0 km/h (0 Bft) 98,65 %
10.11.2021 18:00 5,2 C 3,2 C 0,9 C 86 % 1025,1 hPa 0,0 l/m 0,00 h 0,00 h 0 W/m 0,2 km/h (0 Bft) 96,09 %
10.11.2021 19:00 3,9 C 2,2 C 0,2 C 88 % 1025,3 hPa 0,0 l/m 0,00 h 0,00 h 0 W/m 0,0 km/h (0 Bft) 97,49 %
10.11.2021 20:00 2,8 C 1,5 C -0,3 C 89 % 1025,3 hPa 0,0 l/m 0,00 h 0,00 h 0 W/m 0,0 km/h (0 Bft) 98,01 %
10.11.2021 21:00 2,0 C 0,9 C -0,7 C 90 % 1025,2 hPa 0,0 l/m 0,00 h 0,00 h 0 W/m 0,0 km/h (0 Bft) 96,70 %
10.11.2021 22:00 1,2 C 0,7 C -1,1 C 90 % 1025,1 hPa 0,0 l/m 0,00 h 0,00 h 0 W/m 0,5 km/h (0 Bft) 97,37 %
10.11.2021 23:00 1,5 C 0,8 C -0,9 C 92 % 1025,2 hPa 0,0 l/m 0,00 h 0,00 h 0 W/m 0,2 km/h (0 Bft) 94,78 %
11.11.2021 00:00 1,0 C -0,0 C -1,3 C 92 % 1025,3 hPa 0,0 l/m 0,00 h 0,00 h 0 W/m 0,0 km/h (0 Bft) 96,80 %
11.11.2021 01:00 0,6 C -0,0 C -1,2 C 93 % 1025,0 hPa 0,0 l/m 0,00 h 0,00 h 0 W/m 1,7 km/h (1 Bft) 96,05 %
11.11.2021 02:00 1,5 C 0,9 C -0,3 C 94 % 1024,6 hPa 0,0 l/m 0,00 h 0,00 h 0 W/m 3,0 km/h (1 Bft) 98,72 %
11.11.2021 03:00 1,4 C 0,6 C -0,7 C 95 % 1024,5 hPa 0,0 l/m 0,00 h 0,00 h 0 W/m 2,5 km/h (1 Bft) 95,59 %
11.11.2021 04:00 1,1 C 0,2 C -0,8 C 95 % 1024,6 hPa 0,0 l/m 0,00 h 0,00 h 0 W/m 1,0 km/h (0 Bft) 98,93 %
11.11.2021 05:00 0,6 C -0,1 C -1,1 C 95 % 1024,8 hPa 0,0 l/m 0,00 h 0,00 h 0 W/m 1,4 km/h (1 Bft) 95,81 %
11.11.2021 06:00 0,3 C -0,4 C -1,1 C 95 % 1024,9 hPa 0,0 l/m 0,00 h 0,00 h 0 W/m 2,8 km/h (1 Bft) 97,52 %
11.11.2021 07:00 0,2 C -0,5 C -1,1 C 96 % 1025,3 hPa 0,0 l/m 0,00 h 0,00 h 6 W/m 2,3 km/h (1 Bft) 96,49 %
11.11.2021 08:00 0,1 C -0,4 C -1,1 C 96 % 1025,7 hPa 0,0 l/m 0,00 h 0,03 h 22 W/m 5,1 km/h (1 Bft) 98,08 %
11.11.2021 09:00 0,5 C 0,5 C -0,6 C 96 % 1026,0 hPa 0,0 l/m 0,50 h 0,00 h 105 W/m 9,9 km/h (2 Bft) 97,72 %
11.11.2021 10:00 2,3 C 7,4 C 0,8 C 97 % 1025,9 hPa 0,0 l/m 0,67 h 0,00 h 181 W/m 9,1 km/h (2 Bft) 94,60 %
11.11.2021 11:00 4,0 C 4,7 C 2,7 C 96 % 1025,7 hPa 0,0 l/m 0,00 h 0,00 h 64 W/m 8,7 km/h (2 Bft) 97,37 %
11.11.2021 12:00 5,6 C 6,8 C 4,1 C 95 % 1025,5 hPa 0,0 l/m 0,20 h 0,00 h 114 W/m 9,1 km/h (2 Bft) 97,70 %
11.11.2021 13:00 7,4 C 9,0 C 5,3 C 91 % 1025,2 hPa 0,0 l/m 0,30 h 0,00 h 188 W/m 8,3 km/h (2 Bft) 96,51 %
11.11.2021 14:00 8,2 C 8,8 C 5,6 C 87 % 1025,0 hPa 0,0 l/m 0,17 h 0,00 h 122 W/m 4,1 km/h (1 Bft) 99,50 %
11.11.2021 15:00 8,2 C 7,9 C 5,4 C 87 % 1024,7 hPa 0,0 l/m 0,00 h 0,00 h 58 W/m 4,1 km/h (1 Bft) 95,16 %
11.11.2021 16:00 7,8 C 7,2 C 5,0 C 88 % 1024,8 hPa 0,0 l/m 0,00 h 0,00 h 11 W/m 2,9 km/h (1 Bft) 99,00 %
11.11.2021 17:00 7,6 C 7,1 C 5,0 C 90 % 1024,8 hPa 0,0 l/m 0,00 h 0,00 h 0 W/m 5,7 km/h (1 Bft) 97,07 %
11.11.2021 18:00 7,4 C 6,7 C 4,4 C 90 % 1025,0 hPa 0,0 l/m 0,00 h 0,00 h 0 W/m 4,6 km/h (1 Bft) 97,44 %
11.11.2021 19:00 7,3 C 6,7 C 4,4 C 92 % 1025,1 hPa 0,0 l/m 0,00 h 0,00 h 0 W/m 4,4 km/h (1 Bft) 96,55 %
11.11.2021 20:00 7,1 C 6,4 C 4,4 C 92 % 1024,8 hPa 0,0 l/m 0,00 h 0,00 h 0 W/m 1,0 km/h (0 Bft) 95,17 %
11.11.2021 21:00 6,8 C 5,9 C 4,0 C 92 % 1024,5 hPa 0,0 l/m 0,00 h 0,00 h 0 W/m 3,1 km/h (1 Bft) 95,94 %
11.11.2021 22:00 6,2 C 5,4 C 3,6 C 91 % 1024,1 hPa 0,0 l/m 0,00 h 0,00 h 0 W/m 3,0 km/h (1 Bft) 99,04 %
11.11.2021 23:00 5,2 C 4,0 C 2,4 C 91 % 1023,7 hPa 0,0 l/m 0,00 h 0,00 h 0 W/m 1,7 km/h (1 Bft) 94,71 %
12.11.2021 00:00 3,9 C 2,5 C 1,2 C 92 % 1023,5 hPa 0,0 l/m 0,00 h 0,00 h 0 W/m 0,4 km/h (0 Bft) 94,39 %
12.11.2021 01:00 3,0 C 2,2 C 1,0 C 93 % 1023,3 hPa 0,0 l/m 0,00 h 0,00 h 0 W/m 5,0 km/h (1 Bft) 98,38 %
12.11.2021 02:00 2,7 C 2,1 C 0,9 C 94 % 1023,0 hPa 0,0 l/m 0,00 h 0,00 h 0 W/m 6,3 km/h (2 Bft) 97,02 %
12.11.2021 03:00 2,4 C 1,8 C 0,7 C 94 % 1022,3 hPa 0,0 l/m 0,00 h 0,00 h 0 W/m 7,8 km/h (2 Bft) 94,67 %
12.11.2021 04:00 1,9 C 1,2 C 0,3 C 95 % 1021,8 hPa 0,0 l/m 0,00 h 0,00 h 0 W/m 10,5 km/h (2 Bft) 97,87 %
12.11.2021 05:00 2,1 C 1,6 C 0,7 C 96 % 1021,7 hPa 0,2 l/m 0,00 h 0,00 h 0 W/m 12,7 km/h (3 Bft) 98,43 %
12.11.2021 06:00 2,9 C 2,4 C 1,4 C 96 % 1021,1 hPa 0,0 l/m 0,00 h 0,00 h 0 W/m 16,3 km/h (3 Bft) 96,69 %
12.11.2021 07:00 3,4 C 2,8 C 2,1 C 97 % 1020,1 hPa 0,0 l/m 0,00 h 0,00 h 5 W/m 18,1 km/h (3 Bft) 98,65 %
12.11.2021 08:00 3,3 C 2,9 C 2,2 C 97 % 1019,8 hPa 0,0 l/m 0,00 h 0,00 h 14 W/m 19,7 km/h (3 Bft) 96,94 %
12.11.2021 09:00 3,4 C 3,3 C 2,4 C 97 % 1019,7 hPa 0,0 l/m 0,00 h 0,00 h 34 W/m 14,7 km/h (3 Bft) 98,08 %
12.11.2021 10:00 3,6 C 3,7 C 2,8 C 97 % 1019,3 hPa 0,0 l/m 0,00 h 0,00 h 79 W/m 13,5 km/h (3 Bft) 96,09 %
12.11.2021 11:00 4,2 C 4,8 C 3,6 C 97 % 1018,4 hPa 0,0 l/m 0,07 h 0,00 h 154 W/m 13,5 km/h (3 Bft) 99,29 %
12.11.2021 12:00 5,3 C 6,4 C 4,4 C 96 % 1017,7 hPa 0,0 l/m 0,27 h 0,00 h 119 W/m 14,6 km/h (3 Bft) 96,01 %
12.11.2021 13:00 7,4 C 10,8 C 5,3 C 89 % 1016,9 hPa 0,0 l/m 1,00 h 0,00 h 317 W/m 13,9 km/h (3 Bft) 96,99 %
12.11.2021 14:00 8,5 C 9,1 C 6,1 C 83 % 1016,2 hPa 0,0 l/m 1,00 h 0,00 h 163 W/m 13,8 km/h (3 Bft) 97,86 %
12.11.2021 15:00 8,5 C 8,1 C 5,7 C 82 % 1015,3 hPa 0,0 l/m 0,23 h 0,00 h 75 W/m 12,7 km/h (3 Bft) 96,30 %
12.11.2021 16:00 8,1 C 7,3 C 4,9 C 84 % 1014,7 hPa 0,0 l/m 0,00 h 0,00 h 19 W/m 12,4 km/h (3 Bft) 99,29 %
12.11.2021 17:00 7,2 C 6,4 C 4,2 C 86 % 1014,3 hPa 0,0 l/m 0,00 h 0,00 h 0 W/m 17,3 km/h (3 Bft) 95,51 %
12.11.2021 18:00 6,3 C 5,7 C 3,4 C 87 % 1013,8 hPa 0,0 l/m 0,00 h 0,00 h 0 W/m 18,2 km/h (3 Bft) 98,46 %
12.11.2021 19:00 5,7 C 5,1 C 2,9 C 88 % 1013,7 hPa 0,0 l/m 0,00 h 0,00 h 0 W/m 17,8 km/h (3 Bft) 98,00 %
12.11.2021 20:00 5,2 C 4,5 C 2,6 C 90 % 1013,9 hPa 0,0 l/m 0,00 h 0,00 h 0 W/m 15,5 km/h (3 Bft) 95,75 %
12.11.2021 21:00 5,1 C 4,8 C 2,7 C 90 % 1013,7 hPa 0,0 l/m 0,00 h 0,00 h 0 W/m 13,6 km/h (3 Bft) 99,06 %
12.11.2021 22:00 5,6 C 5,1 C 3,1 C 90 % 1013,5 hPa 0,0 l/m 0,00 h 0,00 h 0 W/m 13,6 km/h (3 Bft) 96,80 %
12.11.2021 23:00 5,8 C 5,0 C 3,0 C 91 % 1012,8 hPa 0,0 l/m 0,00 h 0,00 h 0 W/m 12,3 km/h (3 Bft) 97,50 %
13.11.2021 00:00 5,1 C 4,4 C 2,7 C 92 % 1012,5 hPa 0,0 l/m 0,00 h 0,00 h 0 W/m 14,4 km/h (3 Bft) 95,86 %
13.11.2021 01:00 5,1 C 4,4 C 2,8 C 93 % 1012,2 hPa 0,0 l/m 0,00 h 0,00 h 0 W/m 16,5 km/h (3 Bft) 98,15 %
13.11.2021 02:00 5,4 C 4,8 C 2,9 C 93 % 1011,7 hPa 0,2 l/m 0,00 h 0,13 h 0 W/m 15,5 km/h (3 Bft) 96,44 %
13.11.2021 03:00 5,7 C 5,0 C 3,2 C 95 % 1010,8 hPa 0,4 l/m 0,00 h 0,10 h 0 W/m 14,3 km/h (3 Bft) 97,66 %
13.11.2021 04:00 6,0 C 5,5 C 3,7 C 96 % 1010,6 hPa 0,4 l/m 0,00 h 0,07 h 0 W/m 13,3 km/h (3 Bft) 96,78 %
13.11.2021 05:00 6,4 C 5,7 C 4,2 C 97 % 1010,5 hPa 0,2 l/m 0,00 h 0,03 h 0 W/m 13,0 km/h (3 Bft) 96,17 %
13.11.2021 06:00 6,6 C 6,1 C 4,5 C 97 % 1010,6 hPa 0,6 l/m 0,00 h 0,27 h 0 W/m 11,0 km/h (2 Bft) 97,58 %
13.11.2021 07:00 6,8 C 6,1 C 5,0 C 97 % 1010,8 hPa 0,0 l/m 0,00 h 0,00 h 0 W/m 10,8 km/h (2 Bft) 99,44 %
13.11.2021 08:00 7,1 C 6,7 C 5,4 C 98 % 1011,3 hPa 1,2 l/m 0,00 h 0,40 h 10 W/m 9,9 km/h (2 Bft) 94,90 %
13.11.2021 09:00 7,9 C 7,5 C 6,2 C 98 % 1011,6 hPa 0,8 l/m 0,17 h 0,63 h 61 W/m 7,9 km/h (2 Bft) 99,72 %
13.11.2021 10:00 8,7 C 8,3 C 7,0 C 98 % 1011,9 hPa 0,0 l/m 0,07 h 0,03 h 67 W/m 8,2 km/h (2 Bft) 96,34 %
13.11.2021 11:00 9,4 C 9,1 C 7,8 C 99 % 1011,9 hPa 0,0 l/m 0,00 h 0,00 h 53 W/m 6,1 km/h (2 Bft) 97,53 %
13.11.2021 12:00 10,4 C 10,3 C 8,7 C 99 % 1011,9 hPa 0,0 l/m 0,00 h 0,03 h 91 W/m 10,1 km/h (2 Bft) 98,16 %
13.11.2021 13:00 10,8 C 10,5 C 8,9 C 99 % 1011,9 hPa 0,6 l/m 0,00 h 0,17 h 68 W/m 4,2 km/h (1 Bft) 96,80 %
13.11.2021 14:00 10,9 C 10,3 C 9,1 C 99 % 1012,1 hPa 0,4 l/m 0,00 h 0,17 h 54 W/m 4,3 km/h (1 Bft) 97,84 %
13.11.2021 15:00 11,0 C 10,6 C 9,3 C 99 % 1012,4 hPa 0,0 l/m 0,00 h 0,00 h 46 W/m 1,3 km/h (1 Bft) 99,22 %
13.11.2021 16:00 10,9 C 10,2 C 9,0 C 99 % 1012,9 hPa 0,0 l/m 0,00 h 0,00 h 10 W/m 1,0 km/h (0 Bft) 95,08 %
13.11.2021 17:00 10,2 C 9,3 C 8,6 C 98 % 1013,3 hPa 0,0 l/m 0,00 h 0,00 h 0 W/m 3,6 km/h (1 Bft) 98,98 %
13.11.2021 18:00 9,7 C 8,9 C 8,3 C 98 % 1013,9 hPa 0,8 l/m 0,00 h 0,50 h 0 W/m 2,2 km/h (1 Bft) 96,44 %
13.11.2021 19:00 9,5 C 8,9 C 8,3 C 98 % 1014,5 hPa 0,0 l/m 0,00 h 0,00 h 0 W/m 2,2 km/h (1 Bft) 97,30 %
13.11.2021 20:00 9,4 C 8,7 C 8,3 C 98 % 1015,0 hPa 0,0 l/m 0,00 h 0,00 h 0 W/m 2,1 km/h (1 Bft) 97,65 %
13.11.2021 21:00 9,0 C 8,0 C 7,5 C 98 % 1015,4 hPa 0,0 l/m 0,00 h 0,00 h 0 W/m 0,9 km/h (0 Bft) 98,43 %
13.11.2021 22:00 8,9 C 8,3 C 7,8 C 98 % 1015,9 hPa 0,0 l/m 0,00 h 0,00 h 0 W/m 0,3 km/h (0 Bft) 96,16 %
13.11.2021 23:00 9,0 C 8,3 C 7,8 C 98 % 1016,3 hPa 0,0 l/m 0,00 h 0,00 h 0 W/m 0,0 km/h (0 Bft) 97,57 %
14.11.2021 00:00 9,1 C 8,3 C 7,8 C 98 % 1016,6 hPa 0,0 l/m 0,00 h 0,00 h 0 W/m 0,0 km/h (0 Bft) 97,87 %
14.11.2021 01:00 9,2 C 8,3 C 8,2 C 99 % 1016,8 hPa 0,0 l/m 0,00 h 0,00 h 0 W/m 1,5 km/h (1 Bft) 96,94 %
14.11.2021 02:00 8,9 C 8,3 C 7,8 C 98 % 1017,2 hPa 0,0 l/m 0,00 h 0,00 h 0 W/m 1,6 km/h (1 Bft) 97,08 %
14.11.2021 03:00 8,6 C 7,9 C 7,8 C 98 % 1017,6 hPa 0,0 l/m 0,00 h 0,00 h 0 W/m 0,2 km/h (0 Bft) 99,50 %
14.11.2021 04:00 8,6 C 7,9 C 7,8 C 98 % 1018,1 hPa 0,0 l/m 0,00 h 0,00 h 0 W/m 0,0 km/h (0 Bft) 95,02 %
14.11.2021 05:00 8,6 C 7,9 C 7,8 C 99 % 1018,7 hPa 0,0 l/m 0,00 h 0,00 h 0 W/m 0,6 km/h (0 Bft) 98,93 %
14.11.2021 06:00 8,4 C 7,6 C 7,6 C 98 % 1019,2 hPa 0,0 l/m 0,00 h 0,00 h 0 W/m 0,4 km/h (0 Bft) 98,01 %
14.11.2021 07:00 7,9 C 7,2 C 7,2 C 98 % 1020,0 hPa 0,2 l/m 0,00 h 0,00 h 0 W/m 4,9 km/h (1 Bft) 94,59 %
14.11.2021 08:00 7,5 C 7,2 C 7,0 C 98 % 1021,0 hPa 0,0 l/m 0,00 h 0,00 h 13 W/m 9,6 km/h (2 Bft) 98,57 %
14.11.2021 09:00 7,4 C 7,2 C 6,9 C 98 % 1021,8 hPa 0,0 l/m 0,00 h 0,00 h 23 W/m 8,0 km/h (2 Bft) 95,86 %
14.11.2021 10:00 7,5 C 7,5 C 7,1 C 98 % 1022,5 hPa 0,0 l/m 0,00 h 0,00 h 50 W/m 6,6 km/h (2 Bft) 97,34 %
14.11.2021 11:00 7,8 C 8,2 C 7,4 C 98 % 1022,9 hPa 0,0 l/m 0,00 h 0,00 h 75 W/m 5,1 km/h (1 Bft) 96,74 %
14.11.2021 12:00 8,6 C 9,5 C 8,0 C 98 % 1023,1 hPa 0,0 l/m 0,00 h 0,00 h 109 W/m 5,9 km/h (2 Bft) 98,62 %
14.11.2021 13:00 9,3 C 9,9 C 8,8 C 94 % 1023,3 hPa 0,0 l/m 0,13 h 0,00 h 121 W/m 7,6 km/h (2 Bft) 96,79 %
14.11.2021 14:00 9,7 C 9,9 C 8,5 C 90 % 1023,6 hPa 0,0 l/m 0,13 h 0,00 h 88 W/m 7,9 km/h (2 Bft) 97,51 %
14.11.2021 15:00 9,4 C 9,1 C 8,3 C 91 % 1024,0 hPa 0,0 l/m 0,00 h 0,00 h 39 W/m 4,8 km/h (1 Bft) 99,00 %
14.11.2021 16:00 9,1 C 8,4 C 7,8 C 91 % 1024,4 hPa 0,0 l/m 0,00 h 0,00 h 11 W/m 6,7 km/h (2 Bft) 96,51 %
14.11.2021 17:00 8,7 C 7,8 C 7,2 C 90 % 1024,9 hPa 0,0 l/m 0,00 h 0,00 h 0 W/m 5,8 km/h (2 Bft) 96,11 %
14.11.2021 18:00 8,3 C 7,2 C 6,6 C 90 % 1025,3 hPa 0,0 l/m 0,00 h 0,00 h 0 W/m 5,2 km/h (1 Bft) 98,93 %
14.11.2021 19:00 7,4 C 5,9 C 5,3 C 91 % 1025,8 hPa 0,0 l/m 0,00 h 0,00 h 0 W/m 2,0 km/h (1 Bft) 94,86 %
14.11.2021 20:00 6,4 C 4,7 C 4,2 C 91 % 1026,3 hPa 0,0 l/m 0,00 h 0,00 h 0 W/m 0,0 km/h (0 Bft) 99,14 %
14.11.2021 21:00 5,3 C 3,7 C 3,5 C 92 % 1026,5 hPa 0,0 l/m 0,00 h 0,00 h 0 W/m 0,0 km/h (0 Bft) 96,85 %
14.11.2021 22:00 5,1 C 4,7 C 4,2 C 93 % 1026,5 hPa 0,0 l/m 0,00 h 0,00 h 0 W/m 1,5 km/h (1 Bft) 98,63 %
14.11.2021 23:00 6,6 C 6,3 C 5,8 C 96 % 1026,5 hPa 0,0 l/m 0,00 h 0,00 h 0 W/m 2,1 km/h (1 Bft) 95,43 %
Min-Datum _ 11.11.21 11.11.21 11.11.21 09.11.21 13.11.21 - - - - 08.11.21 12.11.21
_ Min-Zeit 08:08 00:56 00:42 13:38 05:04 - - - - 00:02 00:02
Minimum _ 0,0 C -0,6 C -1,7 C 66 % 1010,4 hPa - - - - 0,0 km/h (0 Bft) 9,09 %
Max-Datum _ 09.11.21 09.11.21 13.11.21 13.11.21 09.11.21 13.11.21 10.11.21 08.11.21 11.11.21 12.11.21 08.11.21
_ Max-Zeit 14:00 13:18 14:32 11:00 11:06 08:24 15:16 10:46 13:36 07:08 01:26
Maximum _ 13,1 C 17,8 C 9,4 C 99 % 1028,3 hPa 1,2 l/m 0,07 h 0,03 h 438 W/m 29,0 km/h
SO (5 Bft)
100,00 %
Durchschnitt _ 6,4 C 6,0 C 4,2 C 92 % 1021,8 hPa #6,4 l/m #11:50 h #2:40 h 88 W/m 5,6 km/h (1 Bft) 97,23 %
© 2021 W. Hausmann